Time;durP1;ratioP1;P1;durP2;ratioP2;P2;SDS_P1;SDS_P2;PMS_P1;PMS_P2;Temp;Humidity;BMP_temperature;BMP_pressure;BME280_temperature;BME280_humidity;BME280_pressure;Samples;Min_cycle;Max_cycle;Signal;HPM_P1;HPM_P2
2022/04/05 00:02:05;;;;;;;29.60;22.73;;;;;;;;;;10307807;28;20501;-90
2022/04/05 00:07:07;;;;;;;28.75;23.45;;;;;;;;;;10325394;28;20901;-89
2022/04/05 00:12:09;;;;;;;28.08;22.45;;;;;;;;;;10326670;28;20822;-91
2022/04/05 00:17:13;;;;;;;29.20;23.23;;;;;;;;;;10318276;28;20679;-91
2022/04/05 00:22:14;;;;;;;30.38;23.95;;;;;;;;;;10325373;28;20503;-89
2022/04/05 00:27:16;;;;;;;28.90;23.50;;;;;;;;;;10326058;28;20522;-91
2022/04/05 00:32:20;;;;;;;33.33;24.30;;;;;;;;;;10308745;28;20523;-90
2022/04/05 00:37:22;;;;;;;30.58;23.10;;;;;;;;;;10321996;28;20444;-88
2022/04/05 00:42:23;;;;;;;33.05;23.92;;;;;;;;;;10297968;23;20501;-82
2022/04/05 00:47:27;;;;;;;31.98;23.58;;;;;;;;;;10297727;28;20418;-82
2022/04/05 00:52:29;;;;;;;30.92;24.13;;;;;;;;;;10303041;28;20436;-82
2022/04/05 00:57:32;;;;;;;33.63;23.80;;;;;;;;;;10301525;28;20902;-83
2022/04/05 01:02:38;;;;;;;33.20;23.70;;;;;;;;;;10300083;28;20517;-82
2022/04/05 01:07:41;;;;;;;30.15;22.65;;;;;;;;;;10303559;28;20496;-80
2022/04/05 01:12:43;;;;;;;31.40;22.30;;;;;;;;;;10294318;28;20599;-81
2022/04/05 01:17:47;;;;;;;27.77;22.27;;;;;;;;;;10298419;28;20524;-80
2022/04/05 01:22:49;;;;;;;30.05;22.95;;;;;;;;;;10300885;28;20511;-81
2022/04/05 01:27:53;;;;;;;30.58;23.67;;;;;;;;;;10303073;28;20419;-81
2022/04/05 01:32:59;;;;;;;30.92;23.90;;;;;;;;;;10289118;28;20517;-81
2022/04/05 01:38:01;;;;;;;29.73;22.70;;;;;;;;;;10300976;28;20834;-81
2022/04/05 01:43:05;;;;;;;29.10;22.77;;;;;;;;;;10301641;28;20496;-80
2022/04/05 01:48:07;;;;;;;29.10;22.52;;;;;;;;;;10300259;28;20412;-81
2022/04/05 01:53:09;;;;;;;30.35;23.75;;;;;;;;;;10302855;28;20424;-82
2022/04/05 01:58:12;;;;;;;31.30;23.67;;;;;;;;;;10303164;28;20868;-81
2022/04/05 02:03:14;;;;;;;31.77;23.77;;;;;;;;;;10294199;28;20415;-82
2022/04/05 02:08:17;;;;;;;28.60;23.20;;;;;;;;;;10292787;28;20953;-82
2022/04/05 02:13:20;;;;;;;29.63;23.20;;;;;;;;;;10296291;28;20521;-82
2022/04/05 02:18:22;;;;;;;28.48;22.55;;;;;;;;;;10295193;28;20896;-81
2022/04/05 02:23:24;;;;;;;27.83;22.08;;;;;;;;;;10296221;28;20408;-81
2022/04/05 02:28:28;;;;;;;26.67;21.65;;;;;;;;;;10295709;28;20411;-81
2022/04/05 02:33:30;;;;;;;26.20;21.42;;;;;;;;;;10294183;28;20424;-81
2022/04/05 02:38:32;;;;;;;26.63;21.70;;;;;;;;;;10293674;28;20459;-83
2022/04/05 02:43:36;;;;;;;31.55;23.25;;;;;;;;;;10295932;28;20429;-82
2022/04/05 02:48:43;;;;;;;27.00;22.13;;;;;;;;;;10293137;28;20438;-82
2022/04/05 02:53:44;;;;;;;27.27;22.23;;;;;;;;;;10291847;28;20413;-82
2022/04/05 02:58:48;;;;;;;29.50;23.02;;;;;;;;;;10295488;28;20401;-82
2022/04/05 03:03:50;;;;;;;27.85;22.63;;;;;;;;;;10293000;28;20421;-82
2022/04/05 03:08:56;;;;;;;28.17;22.03;;;;;;;;;;10294889;28;20477;-82
2022/04/05 03:13:59;;;;;;;30.77;23.25;;;;;;;;;;10295371;28;21336;-82
2022/04/05 03:19:01;;;;;;;27.63;21.85;;;;;;;;;;10292294;28;20425;-81
2022/04/05 03:24:03;;;;;;;28.73;22.75;;;;;;;;;;10294857;28;20421;-82
2022/04/05 03:29:06;;;;;;;30.27;22.80;;;;;;;;;;10294485;28;20975;-81
2022/04/05 03:34:08;;;;;;;27.00;21.73;;;;;;;;;;10294312;28;20412;-82
2022/04/05 03:39:10;;;;;;;28.80;21.90;;;;;;;;;;10290486;28;20418;-82
2022/04/05 03:44:14;;;;;;;27.73;22.00;;;;;;;;;;10295096;28;20439;-82
2022/04/05 03:49:16;;;;;;;28.80;21.90;;;;;;;;;;10301020;28;20523;-82
2022/04/05 03:54:18;;;;;;;28.63;21.70;;;;;;;;;;10301549;28;20458;-81
2022/04/05 03:59:21;;;;;;;29.17;21.80;;;;;;;;;;10301618;28;20415;-82
2022/04/05 04:04:23;;;;;;;29.35;23.00;;;;;;;;;;10294264;28;20511;-81
2022/04/05 04:09:25;;;;;;;27.70;21.97;;;;;;;;;;10292486;28;20505;-81
2022/04/05 04:14:28;;;;;;;27.10;22.13;;;;;;;;;;10282307;28;21275;-81
2022/04/05 04:19:30;;;;;;;29.08;22.10;;;;;;;;;;10282091;28;20436;-82
2022/04/05 04:24:31;;;;;;;27.17;22.08;;;;;;;;;;10281749;28;20414;-81
2022/04/05 04:29:35;;;;;;;29.88;22.00;;;;;;;;;;10280639;28;20440;-82
2022/04/05 04:34:37;;;;;;;32.30;22.65;;;;;;;;;;10279175;28;20418;-82
2022/04/05 04:39:39;;;;;;;28.15;22.20;;;;;;;;;;10279924;28;20513;-82
2022/04/05 04:44:42;;;;;;;29.90;22.40;;;;;;;;;;10280332;28;20406;-82
2022/04/05 04:49:44;;;;;;;32.58;25.10;;;;;;;;;;10279516;28;20569;-81
2022/04/05 04:54:46;;;;;;;31.73;23.33;;;;;;;;;;10275479;28;20497;-82
2022/04/05 04:59:49;;;;;;;31.55;23.88;;;;;;;;;;10281260;28;20423;-82
2022/04/05 05:04:51;;;;;;;29.30;22.70;;;;;;;;;;10279488;28;20521;-82
2022/04/05 05:09:53;;;;;;;34.73;25.10;;;;;;;;;;10280025;28;20515;-80
2022/04/05 05:14:56;;;;;;;30.73;23.37;;;;;;;;;;10280412;28;20457;-81
2022/04/05 05:19:58;;;;;;;30.50;22.58;;;;;;;;;;10278193;28;21352;-81
2022/04/05 05:25:00;;;;;;;30.95;22.95;;;;;;;;;;10276724;28;20418;-81
2022/04/05 05:30:05;;;;;;;37.42;24.60;;;;;;;;;;10276707;28;21035;-82
2022/04/05 05:35:07;;;;;;;32.88;23.23;;;;;;;;;;10276444;28;20417;-81
2022/04/05 05:40:10;;;;;;;36.80;24.42;;;;;;;;;;10278012;28;20830;-80
2022/04/05 05:45:14;;;;;;;30.98;22.15;;;;;;;;;;10277905;28;20406;-82
2022/04/05 05:50:16;;;;;;;30.02;22.50;;;;;;;;;;10265964;28;20810;-81
2022/04/05 05:55:19;;;;;;;29.33;21.63;;;;;;;;;;10267509;28;20489;-82
2022/04/05 06:00:23;;;;;;;29.63;21.37;;;;;;;;;;10267711;28;20473;-81
2022/04/05 06:05:26;;;;;;;33.43;22.07;;;;;;;;;;10273842;28;20417;-80
2022/04/05 06:10:28;;;;;;;30.05;22.33;;;;;;;;;;10275416;28;21025;-81
2022/04/05 06:15:32;;;;;;;31.10;20.73;;;;;;;;;;10275008;28;20428;-83
2022/04/05 06:20:34;;;;;;;30.00;20.40;;;;;;;;;;10272149;28;20423;-80
2022/04/05 06:25:38;;;;;;;30.88;21.70;;;;;;;;;;10272223;28;20574;-79
2022/04/05 06:30:41;;;;;;;30.40;21.23;;;;;;;;;;10275336;28;20544;-79
2022/04/05 06:35:45;;;;;;;29.48;22.05;;;;;;;;;;10273852;28;20469;-80
2022/04/05 06:40:48;;;;;;;27.52;20.38;;;;;;;;;;10270737;28;20418;-82
2022/04/05 06:45:52;;;;;;;27.50;20.10;;;;;;;;;;10273708;28;20531;-81
2022/04/05 06:50:54;;;;;;;29.23;20.10;;;;;;;;;;10275270;28;20441;-81
2022/04/05 06:55:56;;;;;;;27.67;20.67;;;;;;;;;;10275136;28;20422;-82
2022/04/05 07:00:59;;;;;;;34.55;23.35;;;;;;;;;;10273973;28;20414;-82
2022/04/05 07:06:01;;;;;;;28.23;21.90;;;;;;;;;;10273878;28;20418;-87
2022/04/05 07:11:03;;;;;;;29.42;22.17;;;;;;;;;;10275139;28;20422;-82
2022/04/05 07:16:07;;;;;;;31.67;22.80;;;;;;;;;;10279626;28;20412;-81
2022/04/05 07:21:09;;;;;;;30.43;22.97;;;;;;;;;;10282879;28;20924;-83
2022/04/05 07:26:12;;;;;;;31.27;22.65;;;;;;;;;;10283677;28;20406;-83
2022/04/05 07:31:15;;;;;;;31.95;23.40;;;;;;;;;;10281094;28;20434;-82
2022/04/05 07:36:17;;;;;;;31.58;23.08;;;;;;;;;;10278381;28;20414;-82
2022/04/05 07:41:19;;;;;;;32.40;23.73;;;;;;;;;;10283372;28;20613;-80
2022/04/05 07:46:23;;;;;;;30.93;23.60;;;;;;;;;;10278922;28;20422;-82
2022/04/05 07:51:25;;;;;;;32.42;24.02;;;;;;;;;;10282852;28;20454;-82
2022/04/05 07:56:27;;;;;;;31.33;23.13;;;;;;;;;;10276503;28;20535;-83
2022/04/05 08:01:30;;;;;;;30.55;23.50;;;;;;;;;;10275323;28;20509;-81
2022/04/05 08:06:33;;;;;;;31.38;22.52;;;;;;;;;;10275998;28;20450;-82
2022/04/05 08:11:35;;;;;;;31.92;23.17;;;;;;;;;;10283352;28;20546;-82
2022/04/05 08:16:39;;;;;;;30.17;23.65;;;;;;;;;;10284521;28;20518;-82
2022/04/05 08:21:41;;;;;;;32.83;24.25;;;;;;;;;;10290925;28;20886;-82
2022/04/05 08:26:43;;;;;;;32.83;25.83;;;;;;;;;;10298112;28;20493;-82
2022/04/05 08:31:46;;;;;;;32.23;23.77;;;;;;;;;;10298247;28;20432;-82
2022/04/05 08:36:48;;;;;;;33.70;24.20;;;;;;;;;;10294742;28;20505;-83
2022/04/05 08:41:52;;;;;;;31.20;24.63;;;;;;;;;;10297309;28;21018;-82
2022/04/05 08:46:56;;;;;;;30.40;24.00;;;;;;;;;;10295333;28;20413;-83
2022/04/05 08:51:58;;;;;;;29.75;23.25;;;;;;;;;;10291425;28;20468;-82
2022/04/05 08:57:00;;;;;;;29.23;22.77;;;;;;;;;;10297643;28;20419;-82
2022/04/05 09:02:03;;;;;;;30.40;23.38;;;;;;;;;;10288755;28;20420;-82
2022/04/05 09:07:19;;;;;;;29.65;23.38;;;;;;;;;;10288941;28;20548;-82
2022/04/05 09:12:21;;;;;;;30.05;24.02;;;;;;;;;;10287748;28;20470;-83
2022/04/05 09:17:24;;;;;;;30.10;23.47;;;;;;;;;;10287234;28;20804;-82
2022/04/05 09:22:34;;;;;;;30.07;23.53;;;;;;;;;;10290700;28;20504;-83
2022/04/05 09:27:47;;;;;;;31.17;22.67;;;;;;;;;;10292262;28;20428;-83
2022/04/05 09:32:52;;;;;;;31.50;23.20;;;;;;;;;;10294670;28;20441;-84
2022/04/05 09:38:09;;;;;;;26.38;20.65;;;;;;;;;;10293926;28;20430;-80
2022/04/05 09:43:14;;;;;;;25.25;20.90;;;;;;;;;;10295515;28;20422;-82
2022/04/05 09:48:20;;;;;;;27.30;21.88;;;;;;;;;;10288174;28;20922;-82
2022/04/05 09:53:22;;;;;;;24.73;19.65;;;;;;;;;;10294058;28;20501;-82
2022/04/05 09:58:25;;;;;;;27.10;21.87;;;;;;;;;;10291291;28;20812;-84
2022/04/05 10:03:28;;;;;;;27.23;21.38;;;;;;;;;;10288029;28;20488;-82
2022/04/05 10:08:32;;;;;;;27.53;21.47;;;;;;;;;;10296875;28;20417;-81
2022/04/05 10:13:34;;;;;;;25.15;21.00;;;;;;;;;;10291026;28;20435;-81
2022/04/05 10:18:38;;;;;;;27.43;22.53;;;;;;;;;;10294270;28;20419;-81
2022/04/05 10:23:43;;;;;;;28.47;22.10;;;;;;;;;;10289937;28;20416;-82
2022/04/05 10:28:50;;;;;;;26.65;21.77;;;;;;;;;;10296276;28;20424;-82
2022/04/05 10:34:06;;;;;;;27.92;22.13;;;;;;;;;;10284158;28;20441;-82
2022/04/05 10:39:18;;;;;;;24.63;21.67;;;;;;;;;;10284496;28;20442;-81
2022/04/05 10:44:23;;;;;;;26.00;22.13;;;;;;;;;;10299133;28;20767;-82
2022/04/05 10:49:37;;;;;;;26.55;21.20;;;;;;;;;;10287360;28;20909;-82
2022/04/05 10:54:41;;;;;;;23.50;20.10;;;;;;;;;;10295270;28;20438;-81
2022/04/05 10:59:48;;;;;;;27.17;21.77;;;;;;;;;;10301248;28;20406;-81
2022/04/05 11:05:00;;;;;;;25.33;21.05;;;;;;;;;;10280425;28;20414;-82
2022/04/05 11:10:03;;;;;;;25.20;21.85;;;;;;;;;;10283597;28;20433;-82
2022/04/05 11:15:05;;;;;;;26.27;22.27;;;;;;;;;;10283951;28;20450;-81
2022/04/05 11:20:11;;;;;;;26.87;22.53;;;;;;;;;;10280512;28;20522;-82
2022/04/05 11:25:14;;;;;;;25.50;21.57;;;;;;;;;;10289537;28;20512;-82
2022/04/05 11:30:38;;;;;;;25.92;21.33;;;;;;;;;;10281048;28;20422;-81
2022/04/05 11:35:43;;;;;;;25.58;21.92;;;;;;;;;;10276455;28;20453;-82
2022/04/05 11:40:46;;;;;;;23.23;20.70;;;;;;;;;;10278215;28;20426;-82
2022/04/05 11:45:49;;;;;;;24.15;20.23;;;;;;;;;;10281801;28;20418;-82
2022/04/05 11:50:52;;;;;;;24.45;20.98;;;;;;;;;;10277522;28;21130;-81
2022/04/05 11:56:12;;;;;;;25.83;20.92;;;;;;;;;;10281232;28;20482;-81
2022/04/05 12:01:15;;;;;;;22.87;19.90;;;;;;;;;;10278680;28;20430;-82
2022/04/05 12:06:23;;;;;;;23.63;19.67;;;;;;;;;;10276753;28;20426;-81
2022/04/05 12:11:26;;;;;;;23.27;20.42;;;;;;;;;;10274260;28;20416;-82
2022/04/05 12:16:45;;;;;;;25.70;21.17;;;;;;;;;;10270345;28;20424;-82
2022/04/05 12:21:53;;;;;;;26.98;21.90;;;;;;;;;;10278931;28;21135;-83
2022/04/05 12:26:57;;;;;;;23.70;20.63;;;;;;;;;;10282295;28;20409;-83
2022/04/05 12:32:05;;;;;;;22.95;20.48;;;;;;;;;;10282297;28;20437;-82
2022/04/05 12:37:14;;;;;;;22.52;18.85;;;;;;;;;;10281805;28;20455;-82
2022/04/05 12:42:20;;;;;;;23.57;20.47;;;;;;;;;;10286061;28;20485;-83
2022/04/05 12:47:23;;;;;;;23.02;19.98;;;;;;;;;;10287459;28;20450;-82
2022/04/05 12:52:27;;;;;;;24.40;21.33;;;;;;;;;;10280653;28;20420;-82
2022/04/05 12:57:31;;;;;;;26.30;21.48;;;;;;;;;;10293325;28;20436;-82
2022/04/05 13:02:37;;;;;;;23.07;20.53;;;;;;;;;;10290081;28;20410;-82
2022/04/05 13:07:51;;;;;;;24.93;21.37;;;;;;;;;;10293019;28;20415;-84
2022/04/05 13:12:53;;;;;;;25.35;22.30;;;;;;;;;;10284665;28;20525;-82
2022/04/05 13:18:05;;;;;;;24.93;21.63;;;;;;;;;;10280472;28;20497;-84
2022/04/05 13:23:12;;;;;;;24.50;21.67;;;;;;;;;;10290567;28;20409;-84
2022/04/05 13:28:13;;;;;;;25.17;21.30;;;;;;;;;;10287857;28;20429;-83
2022/04/05 13:33:15;;;;;;;25.63;21.95;;;;;;;;;;10282144;28;20448;-83
2022/04/05 13:38:18;;;;;;;25.30;22.52;;;;;;;;;;10283290;28;20433;-83
2022/04/05 13:43:20;;;;;;;23.93;21.27;;;;;;;;;;10283254;28;20974;-85
2022/04/05 13:48:22;;;;;;;23.85;21.27;;;;;;;;;;10278819;28;20417;-81
2022/04/05 13:53:25;;;;;;;25.30;22.58;;;;;;;;;;10283950;28;20436;-84
2022/04/05 13:58:27;;;;;;;25.73;22.85;;;;;;;;;;10283468;28;20764;-83
2022/04/05 14:03:30;;;;;;;25.83;23.13;;;;;;;;;;10281341;28;20506;-84
2022/04/05 14:08:34;;;;;;;27.27;24.23;;;;;;;;;;10289835;28;20442;-82
2022/04/05 14:13:36;;;;;;;26.05;23.25;;;;;;;;;;10279967;28;20799;-83
2022/04/05 14:18:38;;;;;;;26.40;23.60;;;;;;;;;;10280421;28;20414;-84
2022/04/05 14:23:43;;;;;;;26.30;23.60;;;;;;;;;;10281043;28;20498;-84
2022/04/05 14:28:46;;;;;;;26.55;23.65;;;;;;;;;;10284589;28;20411;-85
2022/04/05 14:33:48;;;;;;;25.88;23.17;;;;;;;;;;10277835;28;20569;-83
2022/04/05 14:38:51;;;;;;;25.90;23.30;;;;;;;;;;10291944;28;20491;-83
2022/04/05 14:43:59;;;;;;;27.10;24.15;;;;;;;;;;10281572;28;20491;-83
2022/04/05 14:49:02;;;;;;;25.60;23.05;;;;;;;;;;10285633;28;20427;-84
2022/04/05 14:54:05;;;;;;;25.15;22.45;;;;;;;;;;10283630;28;20794;-83
2022/04/05 14:59:07;;;;;;;25.88;22.63;;;;;;;;;;10285660;28;20409;-83
2022/04/05 15:04:09;;;;;;;30.55;24.40;;;;;;;;;;10299049;28;20438;-83
2022/04/05 15:09:12;;;;;;;26.70;23.73;;;;;;;;;;10288880;28;20996;-82
2022/04/05 15:14:14;;;;;;;26.27;23.58;;;;;;;;;;10300383;28;20420;-82
2022/04/05 15:19:17;;;;;;;26.00;23.30;;;;;;;;;;10295431;28;20463;-84
2022/04/05 15:24:21;;;;;;;26.52;23.73;;;;;;;;;;10290805;28;20976;-82
2022/04/05 15:29:33;;;;;;;26.48;23.70;;;;;;;;;;10291744;28;20528;-83
2022/04/05 15:34:35;;;;;;;25.80;23.20;;;;;;;;;;10289152;28;20971;-83
2022/04/05 15:39:40;;;;;;;28.73;25.75;;;;;;;;;;10298984;28;20416;-83
2022/04/05 15:44:42;;;;;;;26.02;23.40;;;;;;;;;;10308985;28;20416;-82
2022/04/05 15:49:44;;;;;;;29.80;25.40;;;;;;;;;;10300333;28;20527;-84
2022/04/05 15:54:50;;;;;;;29.20;26.15;;;;;;;;;;10305716;28;20424;-83
2022/04/05 15:59:52;;;;;;;31.30;26.77;;;;;;;;;;10299375;28;20473;-83
2022/04/05 16:04:54;;;;;;;29.67;26.63;;;;;;;;;;10281536;28;20424;-81
2022/04/05 16:09:58;;;;;;;29.85;26.65;;;;;;;;;;10279536;28;20983;-81
2022/04/05 16:15:00;;;;;;;28.63;25.55;;;;;;;;;;10279337;28;20486;-80
2022/04/05 16:20:02;;;;;;;29.25;26.15;;;;;;;;;;10281265;28;20417;-82
2022/04/05 16:25:07;;;;;;;30.42;27.27;;;;;;;;;;10284028;28;20544;-81
2022/04/05 16:30:09;;;;;;;29.95;26.60;;;;;;;;;;10293380;28;20504;-82
2022/04/05 16:35:11;;;;;;;30.23;27.02;;;;;;;;;;10302263;28;20896;-81
2022/04/05 16:40:15;;;;;;;30.47;27.27;;;;;;;;;;10292989;28;20417;-81
2022/04/05 16:45:17;;;;;;;30.00;26.80;;;;;;;;;;10298474;28;20415;-81
2022/04/05 16:50:19;;;;;;;31.95;27.70;;;;;;;;;;10290566;28;21146;-81
2022/04/05 16:55:22;;;;;;;31.35;27.67;;;;;;;;;;10291316;28;20772;-81
2022/04/05 17:00:24;;;;;;;34.72;28.70;;;;;;;;;;10289099;28;20407;-82
2022/04/05 17:05:26;;;;;;;31.08;27.73;;;;;;;;;;10277276;28;20437;-80
2022/04/05 17:10:29;;;;;;;30.50;27.10;;;;;;;;;;10288373;28;20409;-82
2022/04/05 17:15:31;;;;;;;36.40;32.38;;;;;;;;;;10260506;28;20444;-81
2022/04/05 17:20:33;;;;;;;39.47;32.92;;;;;;;;;;10273965;28;20437;-82
2022/04/05 17:25:36;;;;;;;41.45;33.22;;;;;;;;;;10279113;28;20921;-82
2022/04/05 17:30:38;;;;;;;40.60;33.42;;;;;;;;;;10277961;28;20421;-83
2022/04/05 17:35:41;;;;;;;39.97;33.07;;;;;;;;;;10277151;28;20436;-83
2022/04/05 17:40:44;;;;;;;41.38;32.70;;;;;;;;;;10277305;28;20922;-82
2022/04/05 17:45:46;;;;;;;40.13;32.30;;;;;;;;;;10278504;28;20430;-84
2022/04/05 17:50:48;;;;;;;37.15;30.17;;;;;;;;;;10278332;28;20437;-83
2022/04/05 17:55:51;;;;;;;37.58;30.35;;;;;;;;;;10278218;28;20430;-82
2022/04/05 18:00:53;;;;;;;39.10;31.30;;;;;;;;;;10283157;28;20416;-82
2022/04/05 18:05:55;;;;;;;37.45;29.33;;;;;;;;;;10279618;28;20422;-83
2022/04/05 18:10:58;;;;;;;37.33;30.03;;;;;;;;;;10284261;28;20576;-82
2022/04/05 18:16:06;;;;;;;35.05;28.88;;;;;;;;;;10284905;28;21602;-82
2022/04/05 18:21:09;;;;;;;36.67;28.63;;;;;;;;;;10277669;28;20429;-75
2022/04/05 18:26:14;;;;;;;34.58;27.77;;;;;;;;;;10275409;28;20410;-85
2022/04/05 18:31:16;;;;;;;30.40;25.53;;;;;;;;;;10280389;28;20421;-84
2022/04/05 18:36:19;;;;;;;39.15;29.77;;;;;;;;;;10281098;28;20448;-83
2022/04/05 18:41:23;;;;;;;35.77;27.97;;;;;;;;;;10271531;28;20492;-82
2022/04/05 18:46:25;;;;;;;32.90;26.30;;;;;;;;;;10267460;28;20510;-85
2022/04/05 18:51:30;;;;;;;30.38;25.90;;;;;;;;;;10269599;28;20406;-84
2022/04/05 18:56:34;;;;;;;29.88;24.98;;;;;;;;;;10269539;28;20479;-82
2022/04/05 19:01:35;;;;;;;31.60;26.55;;;;;;;;;;10275087;28;20454;-83
2022/04/05 19:06:38;;;;;;;28.67;25.47;;;;;;;;;;10271499;28;20901;-83
2022/04/05 19:11:42;;;;;;;31.35;26.25;;;;;;;;;;10273667;28;20457;-85
2022/04/05 19:16:44;;;;;;;32.23;27.50;;;;;;;;;;10278044;28;20421;-84
2022/04/05 19:21:47;;;;;;;32.00;26.07;;;;;;;;;;10265587;28;20529;-84
2022/04/05 19:26:50;;;;;;;32.20;25.95;;;;;;;;;;10270712;28;20423;-84
2022/04/05 19:31:53;;;;;;;28.08;24.00;;;;;;;;;;10307457;28;20908;-80
2022/04/05 19:36:54;;;;;;;28.15;24.70;;;;;;;;;;10301175;28;20608;-83
2022/04/05 19:41:58;;;;;;;30.30;25.45;;;;;;;;;;10295003;28;20576;-82
2022/04/05 19:47:00;;;;;;;33.20;27.05;;;;;;;;;;10280778;28;20861;-83
2022/04/05 19:52:01;;;;;;;34.27;27.23;;;;;;;;;;10276585;28;20428;-84
2022/04/05 19:57:06;;;;;;;36.63;28.92;;;;;;;;;;10274751;28;20432;-82
2022/04/05 20:02:10;;;;;;;38.17;30.73;;;;;;;;;;10273266;28;20530;-83
2022/04/05 20:07:12;;;;;;;43.47;34.33;;;;;;;;;;10276958;28;20433;-84
2022/04/05 20:12:16;;;;;;;40.80;32.73;;;;;;;;;;10274853;28;21000;-84
2022/04/05 20:22:37;;;;;;;38.80;31.48;;;;;;;;;;10271581;28;20767;-84
2022/04/05 20:27:40;;;;;;;35.97;30.75;;;;;;;;;;10269607;28;20418;-83
2022/04/05 20:32:42;;;;;;;36.42;30.77;;;;;;;;;;10268971;28;20509;-83
2022/04/05 20:37:44;;;;;;;43.43;34.03;;;;;;;;;;10272226;28;20713;-84
2022/04/05 20:42:48;;;;;;;43.83;35.00;;;;;;;;;;10273298;28;20424;-83
2022/04/05 20:47:51;;;;;;;46.57;36.57;;;;;;;;;;10272398;28;21678;-83
2022/04/05 20:52:53;;;;;;;53.77;39.10;;;;;;;;;;10256901;28;20570;-84
2022/04/05 20:57:57;;;;;;;51.30;39.85;;;;;;;;;;10268435;28;21076;-83
2022/04/05 21:02:59;;;;;;;50.78;40.05;;;;;;;;;;10267330;28;20431;-85
2022/04/05 21:08:01;;;;;;;56.20;41.03;;;;;;;;;;10267121;28;20421;-84
2022/04/05 21:13:05;;;;;;;53.73;41.20;;;;;;;;;;10268299;28;20520;-83
2022/04/05 21:18:07;;;;;;;55.38;41.78;;;;;;;;;;10264856;28;20422;-85
2022/04/05 21:23:09;;;;;;;54.05;41.13;;;;;;;;;;10270008;28;20454;-83
2022/04/05 21:28:14;;;;;;;56.92;42.35;;;;;;;;;;10276282;28;20418;-83
2022/04/05 21:33:16;;;;;;;56.30;41.83;;;;;;;;;;10272583;28;20430;-83
2022/04/05 21:38:18;;;;;;;55.15;41.28;;;;;;;;;;10272595;28;21819;-84
2022/04/05 21:43:21;;;;;;;55.53;41.23;;;;;;;;;;10258269;28;20505;-85
2022/04/05 21:48:23;;;;;;;56.93;42.87;;;;;;;;;;10290252;28;20419;-84
2022/04/05 21:53:25;;;;;;;59.05;44.08;;;;;;;;;;10304933;28;20499;-85
2022/04/05 21:58:29;;;;;;;56.95;43.08;;;;;;;;;;10305645;28;20406;-84
2022/04/05 22:03:31;;;;;;;55.47;42.28;;;;;;;;;;10306169;28;20408;-85
2022/04/05 22:08:33;;;;;;;56.63;42.65;;;;;;;;;;10310602;28;20405;-85
2022/04/05 22:13:36;;;;;;;54.67;41.23;;;;;;;;;;10310151;28;20439;-85
2022/04/05 22:18:38;;;;;;;53.10;41.30;;;;;;;;;;10299601;28;20404;-83
2022/04/05 22:23:40;;;;;;;53.75;41.35;;;;;;;;;;10311804;28;20495;-84
2022/04/05 22:28:43;;;;;;;55.88;42.33;;;;;;;;;;10310143;28;20401;-85
2022/04/05 22:33:45;;;;;;;55.45;41.20;;;;;;;;;;10304149;28;20420;-85
2022/04/05 22:38:46;;;;;;;52.77;41.07;;;;;;;;;;10309185;28;20927;-85
2022/04/05 22:43:50;;;;;;;55.85;42.55;;;;;;;;;;10310910;28;20412;-84
2022/04/05 22:48:52;;;;;;;54.17;41.38;;;;;;;;;;10303440;28;20439;-84
2022/04/05 22:53:53;;;;;;;56.10;42.40;;;;;;;;;;10310900;28;20434;-83
2022/04/05 22:58:57;;;;;;;57.58;42.83;;;;;;;;;;10310476;28;20431;-85
2022/04/05 23:03:58;;;;;;;59.50;43.55;;;;;;;;;;10305084;28;20521;-85
2022/04/05 23:09:00;;;;;;;56.37;42.60;;;;;;;;;;10311200;28;20427;-84
2022/04/05 23:14:04;;;;;;;55.60;43.13;;;;;;;;;;10310405;28;20427;-85
2022/04/05 23:19:06;;;;;;;57.25;43.00;;;;;;;;;;10299024;28;20424;-85
2022/04/05 23:24:08;;;;;;;57.33;43.67;;;;;;;;;;10310307;28;20481;-85
2022/04/05 23:29:11;;;;;;;59.57;43.80;;;;;;;;;;10303615;28;20495;-84
2022/04/05 23:34:13;;;;;;;59.45;44.05;;;;;;;;;;10304035;28;20509;-85
2022/04/05 23:39:15;;;;;;;57.17;42.70;;;;;;;;;;10310403;28;20415;-84
2022/04/05 23:44:18;;;;;;;59.58;44.03;;;;;;;;;;10305906;28;20496;-83
2022/04/05 23:49:20;;;;;;;56.43;41.80;;;;;;;;;;10296918;28;20504;-84
2022/04/05 23:54:23;;;;;;;60.20;43.17;;;;;;;;;;10310659;28;20522;-84
2022/04/05 23:59:27;;;;;;;52.47;40.03;;;;;;;;;;10303877;28;20434;-85
